createdAt,value
2018-12-21T00:01:39.378Z,1005.03
2018-12-21T00:02:44.521Z,1004.98
2018-12-21T00:04:42.158Z,1004.96
2018-12-21T00:05:40.203Z,1004.95
2018-12-21T00:06:41.606Z,1004.94
2018-12-21T00:07:41.466Z,1004.97
2018-12-21T00:08:41.485Z,1004.93
2018-12-21T00:09:41.502Z,1004.94
2018-12-21T00:10:46.865Z,1004.98
2018-12-21T00:11:41.926Z,1005.01
2018-12-21T00:12:46.165Z,1005.08
2018-12-21T00:13:46.847Z,1005.05
2018-12-21T00:14:37.683Z,1005.04
2018-12-21T00:15:41.522Z,1005.03
2018-12-21T00:16:41.842Z,1005.08
2018-12-21T00:17:41.762Z,1005.14
2018-12-21T00:18:40.064Z,1005.06
2018-12-21T00:19:40.014Z,1005.08
2018-12-21T00:20:40.485Z,1005.04
2018-12-21T00:21:44.839Z,1004.99
2018-12-21T00:22:41.247Z,1005.03
2018-12-21T00:23:41.463Z,1004.97
2018-12-21T00:24:41.946Z,1004.92
2018-12-21T00:25:46.584Z,1004.89
2018-12-21T00:26:41.419Z,1004.78
2018-12-21T00:27:41.404Z,1004.81
2018-12-21T00:28:46.726Z,1004.77
2018-12-21T00:29:42.283Z,1004.79
2018-12-21T00:30:41.905Z,1004.69
2018-12-21T00:31:49.659Z,1004.67
2018-12-21T00:32:43.985Z,1004.67
2018-12-21T00:33:39.086Z,1004.60
2018-12-21T00:34:45.845Z,1004.65
2018-12-21T00:35:39.126Z,1004.62
2018-12-21T00:36:40.724Z,1004.62
2018-12-21T00:37:37.946Z,1004.69
2018-12-21T00:38:40.569Z,1004.68
2018-12-21T00:39:40.847Z,1004.74
2018-12-21T00:40:38.508Z,1004.70
2018-12-21T00:41:40.808Z,1004.73
2018-12-21T00:42:39.224Z,1004.60
2018-12-21T00:43:44.823Z,1004.64
2018-12-21T00:44:40.944Z,1004.59
2018-12-21T00:45:40.701Z,1004.58
2018-12-21T00:46:41.528Z,1004.51
2018-12-21T00:47:39.669Z,1004.53
2018-12-21T00:48:40.771Z,1004.52
2018-12-21T00:49:39.146Z,1004.55
2018-12-21T00:50:40.400Z,1004.47
2018-12-21T00:51:38.468Z,1004.55
2018-12-21T00:52:40.485Z,1004.47
2018-12-21T00:53:40.306Z,1004.45
2018-12-21T00:54:44.464Z,1004.52
2018-12-21T00:55:40.870Z,1004.51
2018-12-21T00:56:41.788Z,1004.47
2018-12-21T00:57:40.316Z,1004.46
2018-12-21T00:58:40.229Z,1004.30
2018-12-21T00:59:40.495Z,1004.36
2018-12-21T01:00:40.755Z,1004.27
2018-12-21T01:01:40.163Z,1004.28
2018-12-21T01:02:38.156Z,1004.31
2018-12-21T01:03:40.598Z,1004.29
2018-12-21T01:04:40.440Z,1004.30
2018-12-21T01:05:36.263Z,1004.30
2018-12-21T01:06:39.829Z,1004.28
2018-12-21T01:07:39.842Z,1004.36
2018-12-21T01:08:39.902Z,1004.24
2018-12-21T01:10:36.876Z,1004.29
2018-12-21T01:11:39.898Z,1004.32
2018-12-21T01:12:39.727Z,1004.29
2018-12-21T01:13:39.823Z,1004.33
2018-12-21T01:14:39.644Z,1004.32
2018-12-21T01:15:38.005Z,1004.29
2018-12-21T01:16:37.883Z,1004.35
2018-12-21T01:17:37.923Z,1004.33
2018-12-21T01:18:38.103Z,1004.31
2018-12-21T01:19:39.753Z,1004.30
2018-12-21T01:20:39.594Z,1004.36
2018-12-21T01:21:39.242Z,1004.28
2018-12-21T01:22:39.252Z,1004.28
2018-12-21T01:23:41.610Z,1004.29
2018-12-21T01:24:39.144Z,1004.32
2018-12-21T01:25:39.124Z,1004.28
2018-12-21T01:26:39.520Z,1004.33
2018-12-21T01:27:39.177Z,1004.35
2018-12-21T01:28:39.387Z,1004.36
2018-12-21T01:29:39.152Z,1004.37
2018-12-21T01:30:39.110Z,1004.30
2018-12-21T01:31:39.064Z,1004.21
2018-12-21T01:32:37.702Z,1004.29
2018-12-21T01:33:38.688Z,1004.27
2018-12-21T01:34:41.121Z,1004.24
2018-12-21T01:35:36.713Z,1004.28
2018-12-21T01:36:38.702Z,1004.27
2018-12-21T01:37:38.785Z,1004.19
2018-12-21T01:38:38.643Z,1004.18
2018-12-21T01:39:38.542Z,1004.22
2018-12-21T01:40:39.015Z,1004.15
2018-12-21T01:42:36.044Z,1004.21
2018-12-21T01:43:38.705Z,1004.17
2018-12-21T01:44:36.705Z,1004.19
2018-12-21T01:45:36.859Z,1004.23
2018-12-21T01:46:36.725Z,1004.13
2018-12-21T01:47:37.007Z,1004.12
2018-12-21T01:48:38.121Z,1004.11
2018-12-21T01:49:39.082Z,1004.20
2018-12-21T01:50:38.841Z,1004.11
2018-12-21T01:51:38.203Z,1004.17
2018-12-21T01:52:38.226Z,1004.11
2018-12-21T01:53:38.087Z,1004.19
2018-12-21T01:54:38.448Z,1004.16
2018-12-21T01:55:38.165Z,1004.13
2018-12-21T01:56:38.182Z,1004.19
2018-12-21T01:57:38.014Z,1004.10
2018-12-21T01:58:38.729Z,1004.05
2018-12-21T01:59:38.598Z,1004.06
2018-12-21T02:00:36.965Z,1004.04
2018-12-21T02:02:35.307Z,1004.04
2018-12-21T02:03:35.620Z,1003.95
2018-12-21T02:04:37.713Z,1003.97
2018-12-21T02:05:43.320Z,1003.93
2018-12-21T02:06:38.075Z,1003.85
2018-12-21T02:07:37.662Z,1003.85
2018-12-21T02:08:37.749Z,1003.88
2018-12-21T02:09:37.680Z,1003.85
2018-12-21T02:10:37.587Z,1003.78
2018-12-21T02:11:37.664Z,1003.83
2018-12-21T02:12:37.584Z,1003.81
2018-12-21T02:13:33.603Z,1003.80
2018-12-21T02:14:42.592Z,1003.77
2018-12-21T02:15:35.989Z,1003.82
2018-12-21T02:16:37.667Z,1003.77
2018-12-21T02:17:42.604Z,1003.72
2018-12-21T02:18:33.431Z,1003.75
2018-12-21T02:19:37.128Z,1003.68
2018-12-21T02:20:37.146Z,1003.61
2018-12-21T02:21:37.102Z,1003.60
2018-12-21T02:22:37.101Z,1003.59
2018-12-21T02:23:41.489Z,1003.60
2018-12-21T02:24:37.005Z,1003.62
2018-12-21T02:25:37.101Z,1003.55
2018-12-21T02:26:37.167Z,1003.58
2018-12-21T02:27:35.264Z,1003.56
2018-12-21T02:28:37.310Z,1003.53
2018-12-21T02:29:35.550Z,1003.44
2018-12-21T02:30:35.550Z,1003.51
2018-12-21T02:31:35.016Z,1003.46
2018-12-21T02:32:41.971Z,1003.44
2018-12-21T02:33:36.622Z,1003.39
2018-12-21T02:34:36.606Z,1003.42
2018-12-21T02:35:36.555Z,1003.40
2018-12-21T02:36:36.601Z,1003.46
2018-12-21T02:37:36.713Z,1003.47
2018-12-21T02:38:36.541Z,1003.39
2018-12-21T02:39:36.598Z,1003.39
2018-12-21T02:40:36.635Z,1003.34
2018-12-21T02:41:36.839Z,1003.39
2018-12-21T02:42:37.844Z,1003.33
2018-12-21T02:43:34.685Z,1003.28
2018-12-21T02:44:36.618Z,1003.29
2018-12-21T02:45:34.564Z,1003.33
2018-12-21T02:46:36.263Z,1003.28
2018-12-21T02:47:36.128Z,1003.22
2018-12-21T02:48:36.104Z,1003.20
2018-12-21T02:49:36.133Z,1003.22
2018-12-21T02:50:39.561Z,1003.16
2018-12-21T02:51:36.058Z,1003.12
2018-12-21T02:52:36.125Z,1003.13
2018-12-21T02:53:36.173Z,1003.13
2018-12-21T02:54:36.144Z,1003.06
2018-12-21T02:55:36.450Z,1003.13
2018-12-21T02:56:36.420Z,1003.10
2018-12-21T02:57:34.165Z,1003.12
2018-12-21T02:58:34.360Z,1003.18
2018-12-21T02:59:34.697Z,1003.14
2018-12-21T03:00:35.171Z,1003.12
2018-12-21T03:01:38.564Z,1003.14
2018-12-21T03:02:35.723Z,1003.08
2018-12-21T03:03:35.655Z,1003.12
2018-12-21T03:04:36.442Z,1003.08
2018-12-21T03:05:35.675Z,1003.06
2018-12-21T03:06:36.515Z,1002.96
2018-12-21T03:07:35.653Z,1002.98
2018-12-21T03:08:35.566Z,1002.93
2018-12-21T03:09:35.464Z,1002.87
2018-12-21T03:10:36.022Z,1002.89
2018-12-21T03:11:35.750Z,1002.83
2018-12-21T03:12:33.576Z,1002.85
2018-12-21T03:13:34.156Z,1002.82
2018-12-21T03:14:33.375Z,1002.72
2018-12-21T03:15:35.268Z,1002.74
2018-12-21T03:16:36.016Z,1002.73
2018-12-21T03:17:35.074Z,1002.66
2018-12-21T03:18:35.000Z,1002.61
2018-12-21T03:19:35.100Z,1002.63
2018-12-21T03:20:35.715Z,1002.60
2018-12-21T03:21:35.160Z,1002.63
2018-12-21T03:22:35.196Z,1002.63
2018-12-21T03:23:35.104Z,1002.54
2018-12-21T03:24:35.281Z,1002.44
2018-12-21T03:25:35.250Z,1002.46
2018-12-21T03:26:35.112Z,1002.43
2018-12-21T03:27:33.179Z,1002.52
2018-12-21T03:28:33.639Z,1002.34
2018-12-21T03:29:33.460Z,1002.38
2018-12-21T03:30:34.709Z,1002.32
2018-12-21T03:31:30.940Z,1002.25
2018-12-21T03:32:35.010Z,1002.28
2018-12-21T03:33:34.698Z,1002.32
2018-12-21T03:34:34.713Z,1002.26
2018-12-21T03:35:34.723Z,1002.24
2018-12-21T03:36:31.635Z,1002.25
2018-12-21T03:37:34.701Z,1002.21
2018-12-21T03:38:32.925Z,1002.19
2018-12-21T03:39:34.498Z,1002.13
2018-12-21T03:40:35.210Z,1002.13
2018-12-21T03:41:35.896Z,1002.01
2018-12-21T03:42:34.498Z,1002.03
2018-12-21T03:43:33.081Z,1001.98
2018-12-21T03:44:34.725Z,1001.96
2018-12-21T03:45:34.247Z,1002.00
2018-12-21T03:46:34.124Z,1001.93
2018-12-21T03:47:34.031Z,1001.89
2018-12-21T03:48:34.164Z,1001.87
2018-12-21T03:49:34.309Z,1001.88
2018-12-21T03:50:34.185Z,1001.95
2018-12-21T03:51:34.153Z,1001.91
2018-12-21T03:52:35.231Z,1001.89
2018-12-21T03:53:34.213Z,1001.87
2018-12-21T03:54:34.093Z,1001.83
2018-12-21T03:55:33.077Z,1001.87
2018-12-21T03:56:34.479Z,1001.81
2018-12-21T03:57:34.213Z,1001.85
2018-12-21T03:58:32.434Z,1001.71
2018-12-21T03:59:31.040Z,1001.69
2018-12-21T04:00:34.807Z,1001.68
2018-12-21T04:01:33.658Z,1001.75
2018-12-21T04:02:33.805Z,1001.73
2018-12-21T04:03:34.071Z,1001.66
2018-12-21T04:04:33.645Z,1001.69
2018-12-21T04:05:33.608Z,1001.63
2018-12-21T04:06:34.725Z,1001.64
2018-12-21T04:07:34.343Z,1001.60
2018-12-21T04:08:33.773Z,1001.56
2018-12-21T04:09:33.971Z,1001.56
2018-12-21T04:10:32.018Z,1001.60
2018-12-21T04:11:33.628Z,1001.61
2018-12-21T04:12:33.901Z,1001.54
2018-12-21T04:13:32.428Z,1001.46
2018-12-21T04:14:33.142Z,1001.53
2018-12-21T04:15:33.486Z,1001.56
2018-12-21T04:16:31.527Z,1001.50
2018-12-21T04:17:31.076Z,1001.41
2018-12-21T04:18:33.164Z,1001.43
2018-12-21T04:19:33.123Z,1001.44
2018-12-21T04:20:33.089Z,1001.39
2018-12-21T04:21:33.448Z,1001.35
2018-12-21T04:22:34.316Z,1001.28
2018-12-21T04:23:33.266Z,1001.25
2018-12-21T04:24:31.335Z,1001.26
2018-12-21T04:25:31.217Z,1001.14
2018-12-21T04:26:33.383Z,1001.27
2018-12-21T04:27:31.366Z,1001.06
2018-12-21T04:28:31.447Z,1001.09
2018-12-21T04:29:32.691Z,1001.06
2018-12-21T04:30:32.885Z,1000.99
2018-12-21T04:31:32.674Z,1000.96
2018-12-21T04:32:30.714Z,1001.03
2018-12-21T04:33:32.724Z,1000.94
2018-12-21T04:34:28.806Z,1000.89
2018-12-21T04:35:31.130Z,1000.82
2018-12-21T04:36:32.684Z,1000.89
2018-12-21T04:37:31.121Z,1000.91
2018-12-21T04:38:33.111Z,1000.88
2018-12-21T04:39:36.422Z,1000.83
2018-12-21T04:40:31.405Z,1000.77
2018-12-21T04:42:30.653Z,1000.67
2018-12-21T04:43:32.483Z,1000.56
2018-12-21T04:44:30.268Z,1000.61
2018-12-21T04:45:32.392Z,1000.54
2018-12-21T04:46:32.259Z,1000.47
2018-12-21T04:47:32.227Z,1000.49
2018-12-21T04:48:33.054Z,1000.42
2018-12-21T04:49:32.198Z,1000.44
2018-12-21T04:50:32.141Z,1000.50
2018-12-21T04:51:32.462Z,1000.38
2018-12-21T04:52:32.438Z,1000.38
2018-12-21T04:53:32.026Z,1000.33
2018-12-21T04:54:32.624Z,1000.28
2018-12-21T04:55:31.518Z,1000.29
2018-12-21T04:56:32.155Z,1000.23
2018-12-21T04:57:30.793Z,1000.22
2018-12-21T04:58:34.835Z,1000.16
2018-12-21T04:59:31.779Z,1000.19
2018-12-21T05:00:34.254Z,1000.10
2018-12-21T05:02:32.464Z,1000.18
2018-12-21T05:03:31.544Z,1000.11
2018-12-21T05:04:31.694Z,1000.23
2018-12-21T05:05:34.517Z,1000.16
2018-12-21T05:06:33.295Z,1000.14
2018-12-21T05:07:27.709Z,1000.08
2018-12-21T05:08:31.741Z,1000.10
2018-12-21T05:09:31.755Z,1000.09
2018-12-21T05:10:31.596Z,1000.10
2018-12-21T05:11:29.621Z,1000.16
2018-12-21T05:12:29.685Z,1000.10
2018-12-21T05:13:31.425Z,1000.09
2018-12-21T05:14:31.068Z,1000.05
2018-12-21T05:15:31.073Z,1000.04
2018-12-21T05:16:31.175Z,1000.17
2018-12-21T05:17:33.925Z,1000.05
2018-12-21T05:18:29.064Z,1000.03
2018-12-21T05:19:31.771Z,1000.03
2018-12-21T05:20:31.503Z,999.89
2018-12-21T05:21:31.297Z,999.98
2018-12-21T05:22:31.003Z,999.92
2018-12-21T05:23:29.304Z,999.92
2018-12-21T05:24:31.168Z,999.96
2018-12-21T05:25:29.602Z,1000.01
2018-12-21T05:26:29.431Z,999.78
2018-12-21T05:27:29.584Z,999.81
2018-12-21T05:28:30.727Z,999.75
2018-12-21T05:29:31.115Z,999.80
2018-12-21T05:30:30.733Z,999.69
2018-12-21T05:31:31.074Z,999.72
2018-12-21T05:32:31.035Z,999.71
2018-12-21T05:33:30.751Z,999.70
2018-12-21T05:34:31.339Z,999.67
2018-12-21T05:35:30.881Z,999.62
2018-12-21T05:36:30.765Z,999.67
2018-12-21T05:37:30.628Z,999.57
2018-12-21T05:38:30.656Z,999.47
2018-12-21T05:39:29.061Z,999.45
2018-12-21T05:40:30.915Z,999.39
2018-12-21T05:41:29.100Z,999.48
2018-12-21T05:42:31.617Z,999.56
2018-12-21T05:45:28.265Z,999.56
2018-12-21T05:46:30.631Z,999.46
2018-12-21T05:47:30.173Z,999.46
2018-12-21T05:48:30.436Z,999.37
2018-12-21T05:49:31.019Z,999.49
2018-12-21T05:50:30.220Z,999.33
2018-12-21T05:51:30.104Z,999.40
2018-12-21T05:52:26.178Z,999.32
2018-12-21T05:53:31.488Z,999.20
2018-12-21T05:54:33.546Z,999.22
2018-12-21T05:55:33.225Z,999.19
2018-12-21T05:56:30.701Z,999.27
2018-12-21T05:57:26.090Z,999.20
2018-12-21T05:58:37.123Z,999.08
2018-12-21T05:59:33.821Z,999.15
2018-12-21T06:00:29.767Z,999.14
2018-12-21T06:01:32.848Z,999.11
2018-12-21T06:02:30.329Z,999.03
2018-12-21T06:03:32.071Z,999.05
2018-12-21T06:04:31.293Z,999.03
2018-12-21T06:05:29.749Z,998.94
2018-12-21T06:06:29.807Z,998.99
2018-12-21T06:07:33.868Z,998.99
2018-12-21T06:08:29.710Z,998.96
2018-12-21T06:09:27.816Z,998.97
2018-12-21T06:10:32.707Z,998.91
2018-12-21T06:11:28.017Z,998.82
2018-12-21T06:12:29.599Z,998.82
2018-12-21T06:13:29.535Z,998.84
2018-12-21T06:14:32.698Z,998.68
2018-12-21T06:15:25.418Z,998.64
2018-12-21T06:16:35.947Z,998.69
2018-12-21T06:17:29.226Z,998.64
2018-12-21T06:19:26.500Z,998.53
2018-12-21T06:20:27.590Z,998.49
2018-12-21T06:21:29.324Z,998.56
2018-12-21T06:22:29.027Z,998.56
2018-12-21T06:23:27.296Z,998.45
2018-12-21T06:24:27.439Z,998.42
2018-12-21T06:25:27.424Z,998.38
2018-12-21T06:26:28.849Z,998.29
2018-12-21T06:27:31.149Z,998.30
2018-12-21T06:28:24.917Z,998.27
2018-12-21T06:29:27.054Z,998.26
2018-12-21T06:30:29.279Z,998.19
2018-12-21T06:31:31.526Z,998.16
2018-12-21T06:32:28.784Z,998.13
2018-12-21T06:33:28.579Z,998.15
2018-12-21T06:34:28.698Z,998.07
2018-12-21T06:35:28.659Z,998.02
2018-12-21T06:36:28.578Z,997.98
2018-12-21T06:37:29.018Z,997.96
2018-12-21T06:38:24.677Z,997.93
2018-12-21T06:39:29.064Z,997.90
2018-12-21T06:40:31.419Z,997.89
2018-12-21T06:41:28.279Z,997.80
2018-12-21T06:42:31.505Z,997.71
2018-12-21T06:43:31.044Z,997.72
2018-12-21T06:44:28.055Z,997.64
2018-12-21T06:45:31.284Z,997.46
2018-12-21T06:46:30.047Z,997.57
2018-12-21T06:47:32.186Z,997.51
2018-12-21T06:48:27.906Z,997.47
2018-12-21T06:49:30.919Z,997.46
2018-12-21T06:50:29.288Z,997.39
2018-12-21T06:51:29.009Z,997.31
2018-12-21T06:52:29.534Z,997.35
2018-12-21T06:53:25.688Z,997.22
2018-12-21T06:54:26.107Z,997.25
2018-12-21T06:55:27.648Z,997.29
2018-12-21T06:56:27.723Z,997.14
2018-12-21T06:57:27.811Z,997.10
2018-12-21T06:58:31.140Z,997.07
2018-12-21T07:00:34.689Z,997.06
2018-12-21T07:01:31.030Z,996.97
2018-12-21T07:03:26.446Z,997.04
2018-12-21T07:04:25.995Z,996.89
2018-12-21T07:05:27.910Z,997.00
2018-12-21T07:06:27.693Z,996.93
2018-12-21T07:07:26.164Z,996.83
2018-12-21T07:08:27.827Z,996.87
2018-12-21T07:09:25.748Z,996.96
2018-12-21T07:10:27.568Z,996.83
2018-12-21T07:11:23.465Z,996.71
2018-12-21T07:12:27.429Z,996.92
2018-12-21T07:13:27.165Z,996.96
2018-12-21T07:14:27.703Z,996.90
2018-12-21T07:16:23.315Z,996.64
2018-12-21T07:17:25.031Z,996.89
2018-12-21T07:18:27.807Z,996.76
2018-12-21T07:19:25.189Z,996.74
2018-12-21T07:20:27.266Z,996.67
2018-12-21T07:21:26.060Z,996.57
2018-12-21T07:22:32.324Z,996.51
2018-12-21T07:23:27.590Z,996.55
2018-12-21T07:24:25.534Z,996.51
2018-12-21T07:25:34.703Z,996.53
2018-12-21T07:26:29.561Z,996.43
2018-12-21T07:27:28.109Z,996.59
2018-12-21T07:28:29.887Z,996.45
2018-12-21T07:30:26.214Z,996.41
2018-12-21T07:31:25.024Z,996.31
2018-12-21T07:32:26.720Z,996.26
2018-12-21T07:33:24.624Z,996.34
2018-12-21T07:34:26.609Z,996.33
2018-12-21T07:35:26.374Z,996.35
2018-12-21T07:36:31.499Z,996.32
2018-12-21T07:37:29.436Z,996.25
2018-12-21T07:38:25.007Z,996.28
2018-12-21T07:39:22.566Z,996.35
2018-12-21T07:40:26.208Z,996.22
2018-12-21T07:41:26.482Z,996.29
2018-12-21T07:42:26.183Z,996.25
2018-12-21T07:43:30.398Z,996.24
2018-12-21T07:44:22.459Z,996.29
2018-12-21T07:45:31.505Z,996.23
2018-12-21T07:46:24.268Z,996.16
2018-12-21T07:47:29.526Z,996.11
2018-12-21T07:48:29.330Z,996.06
2018-12-21T07:49:22.185Z,996.17
2018-12-21T07:50:26.449Z,996.05
2018-12-21T07:51:24.488Z,996.09
2018-12-21T07:52:26.624Z,996.09
2018-12-21T07:53:24.023Z,996.11
2018-12-21T07:55:25.983Z,995.95
2018-12-21T07:56:25.724Z,995.95
2018-12-21T07:57:25.976Z,995.93
2018-12-21T07:58:26.554Z,995.93
2018-12-21T07:59:25.966Z,995.88
2018-12-21T08:01:24.034Z,995.88
2018-12-21T08:02:21.862Z,995.83
2018-12-21T08:03:23.964Z,995.78
2018-12-21T08:04:26.844Z,995.80
2018-12-21T08:06:24.368Z,995.86
2018-12-21T08:07:21.573Z,995.83
2018-12-21T08:08:24.249Z,995.69
2018-12-21T08:09:31.675Z,995.68
2018-12-21T08:10:25.982Z,995.82
2018-12-21T08:12:21.405Z,995.58
2018-12-21T08:13:23.259Z,995.66
2018-12-21T08:15:55.018Z,995.41
2018-12-21T08:16:54.825Z,995.46
2018-12-21T08:18:47.940Z,995.51
2018-12-21T08:21:42.051Z,995.33
2018-12-21T08:22:38.404Z,995.35
2018-12-21T08:23:47.524Z,995.27
2018-12-21T08:24:42.281Z,995.30
2018-12-21T08:25:44.644Z,995.32
2018-12-21T08:26:43.559Z,995.28
2018-12-21T08:27:38.243Z,995.18
2018-12-21T08:28:42.284Z,995.18
2018-12-21T08:29:42.947Z,995.15
2018-12-21T08:30:45.073Z,995.18
2018-12-21T08:31:43.352Z,995.18
2018-12-21T08:32:42.272Z,995.11
2018-12-21T08:33:40.504Z,995.17
2018-12-21T08:34:43.191Z,995.15
2018-12-21T08:35:45.134Z,995.14
2018-12-21T08:36:42.395Z,995.14
2018-12-21T08:37:43.494Z,995.20
2018-12-21T08:38:41.933Z,995.14
2018-12-21T08:40:42.376Z,994.99
2018-12-21T08:41:41.763Z,994.91
2018-12-21T08:42:44.926Z,994.91
2018-12-21T08:43:44.573Z,994.94
2018-12-21T08:44:44.918Z,994.98
2018-12-21T08:45:41.770Z,995.01
2018-12-21T08:46:44.760Z,994.96
2018-12-21T08:47:42.894Z,995.00
2018-12-21T08:48:37.940Z,994.91
2018-12-21T08:50:37.507Z,994.85
2018-12-21T08:52:41.811Z,994.91
2018-12-21T08:53:42.233Z,994.77
2018-12-21T08:54:46.042Z,994.73
2018-12-21T08:55:44.567Z,994.60
2018-12-21T08:56:43.926Z,994.61
2018-12-21T08:57:39.165Z,994.69
2018-12-21T08:58:41.366Z,994.60
2018-12-21T08:59:41.385Z,994.57
2018-12-21T09:00:40.526Z,994.55
2018-12-21T09:01:41.364Z,994.53
2018-12-21T09:02:39.668Z,994.49
2018-12-21T09:03:37.063Z,994.54
2018-12-21T09:04:45.765Z,994.59
2018-12-21T09:05:45.046Z,994.55
2018-12-21T09:06:41.348Z,994.49
2018-12-21T09:07:40.669Z,994.42
2018-12-21T09:08:41.260Z,994.41
2018-12-21T09:09:41.188Z,994.40
2018-12-21T09:10:40.901Z,994.38
2018-12-21T09:11:40.696Z,994.27
2018-12-21T09:12:40.819Z,994.35
2018-12-21T09:13:36.699Z,994.22
2018-12-21T09:14:40.709Z,994.27
2018-12-21T09:15:39.960Z,994.13
2018-12-21T09:16:42.407Z,994.13
2018-12-21T09:17:39.138Z,994.17
2018-12-21T09:18:37.104Z,994.11
2018-12-21T09:19:40.489Z,994.08
2018-12-21T09:20:40.467Z,994.09
2018-12-21T09:21:41.197Z,994.08
2018-12-21T09:22:40.288Z,994.07
2018-12-21T09:23:41.031Z,994.05
2018-12-21T09:24:40.230Z,993.90
2018-12-21T09:25:40.252Z,993.93
2018-12-21T09:26:40.422Z,993.89
2018-12-21T09:27:40.256Z,993.90
2018-12-21T09:28:41.278Z,993.89
2018-12-21T09:29:40.421Z,993.89
2018-12-21T09:30:40.301Z,993.73
2018-12-21T09:31:40.291Z,993.71
2018-12-21T09:32:40.612Z,993.70
2018-12-21T09:33:38.494Z,993.70
2018-12-21T09:34:39.700Z,993.62
2018-12-21T09:35:44.301Z,993.59
2018-12-21T09:36:44.526Z,993.66
2018-12-21T09:37:39.886Z,993.57
2018-12-21T09:38:39.801Z,993.51
2018-12-21T09:39:39.756Z,993.55
2018-12-21T09:40:43.730Z,993.44
2018-12-21T09:41:39.771Z,993.51
2018-12-21T09:42:40.360Z,993.39
2018-12-21T09:43:39.806Z,993.42
2018-12-21T09:44:40.120Z,993.42
2018-12-21T09:45:38.566Z,993.25
2018-12-21T09:46:37.902Z,993.51
2018-12-21T09:47:39.727Z,993.52
2018-12-21T09:48:42.289Z,993.34
2018-12-21T09:49:39.679Z,993.25
2018-12-21T09:50:39.425Z,993.14
2018-12-21T09:51:39.885Z,993.17
2018-12-21T09:52:39.274Z,993.15
2018-12-21T09:53:39.319Z,993.17
2018-12-21T09:54:39.138Z,993.14
2018-12-21T09:55:39.286Z,993.14
2018-12-21T09:56:37.623Z,993.21
2018-12-21T09:57:39.438Z,993.15
2018-12-21T09:58:39.259Z,993.10
2018-12-21T09:59:39.500Z,992.96
2018-12-21T10:00:39.283Z,992.98
2018-12-21T10:01:44.086Z,992.95
2018-12-21T10:02:37.704Z,992.74
2018-12-21T10:03:37.361Z,992.72
2018-12-21T10:04:39.083Z,992.76
2018-12-21T10:05:39.086Z,992.74
2018-12-21T10:06:38.682Z,992.67
2018-12-21T10:07:39.006Z,993.01
2018-12-21T10:08:38.761Z,992.82
2018-12-21T10:09:39.285Z,992.99
2018-12-21T10:10:38.815Z,993.04
2018-12-21T10:11:38.522Z,993.22
2018-12-21T10:12:36.562Z,993.11
2018-12-21T10:13:39.087Z,992.95
2018-12-21T10:14:35.258Z,993.03
2018-12-21T10:15:36.776Z,993.00
2018-12-21T10:16:36.085Z,992.87
2018-12-21T10:17:37.406Z,992.82
2018-12-21T10:18:36.862Z,992.86
2018-12-21T10:19:38.447Z,992.63
2018-12-21T10:20:38.682Z,992.77
2018-12-21T10:21:39.305Z,992.77
2018-12-21T10:22:39.543Z,992.49
2018-12-21T10:25:51.660Z,992.73
2018-12-21T10:27:38.345Z,992.70
2018-12-21T10:28:38.438Z,992.69
2018-12-21T10:29:36.281Z,992.46
2018-12-21T10:30:39.866Z,992.61
2018-12-21T10:31:38.424Z,992.52
2018-12-21T10:32:36.438Z,992.54
2018-12-21T10:33:37.522Z,992.58
2018-12-21T10:34:37.728Z,992.52
2018-12-21T10:35:37.745Z,992.62
2018-12-21T10:36:38.267Z,992.72
2018-12-21T10:37:42.670Z,992.59
2018-12-21T10:38:37.221Z,992.63
2018-12-21T10:39:37.606Z,992.62
2018-12-21T10:40:40.686Z,992.61
2018-12-21T10:42:37.553Z,992.64
2018-12-21T10:43:37.741Z,992.61
2018-12-21T10:44:37.743Z,992.60
2018-12-21T10:45:41.518Z,992.56
2018-12-21T10:46:41.767Z,992.57
2018-12-21T10:47:37.802Z,992.57
2018-12-21T10:48:37.495Z,992.51
2018-12-21T10:49:36.868Z,992.58
2018-12-21T10:50:37.587Z,992.56
2018-12-21T10:51:37.233Z,992.53
2018-12-21T10:52:38.952Z,992.46
2018-12-21T10:53:40.552Z,992.45
2018-12-21T10:54:37.324Z,992.45
2018-12-21T10:55:40.207Z,992.46
2018-12-21T10:56:40.580Z,992.52
2018-12-21T10:57:38.074Z,992.55
2018-12-21T10:58:37.337Z,992.50
2018-12-21T10:59:33.242Z,992.39
2018-12-21T11:01:34.983Z,992.42
2018-12-21T11:02:35.364Z,992.35
2018-12-21T11:03:35.786Z,992.45
2018-12-21T11:04:42.367Z,992.47
2018-12-21T11:06:40.648Z,992.44
2018-12-21T11:07:37.020Z,992.50
2018-12-21T11:08:36.770Z,992.37
2018-12-21T11:09:36.773Z,992.39
2018-12-21T11:10:45.879Z,992.35
2018-12-21T11:12:36.956Z,992.40
2018-12-21T11:13:37.272Z,992.30
2018-12-21T11:14:36.767Z,992.30
2018-12-21T11:15:37.444Z,992.34
2018-12-21T11:16:39.466Z,992.33
2018-12-21T11:17:37.529Z,992.38
2018-12-21T11:18:37.041Z,992.33
2018-12-21T11:19:35.013Z,992.35
2018-12-21T11:20:41.635Z,992.28
2018-12-21T11:21:36.478Z,992.30
2018-12-21T11:22:36.239Z,992.28
2018-12-21T11:23:36.300Z,992.34
2018-12-21T11:24:36.570Z,992.27
2018-12-21T11:25:38.095Z,992.27
2018-12-21T11:27:34.583Z,992.26
2018-12-21T11:28:36.889Z,992.30
2018-12-21T11:29:36.485Z,992.45
2018-12-21T11:30:36.409Z,992.32
2018-12-21T11:31:36.519Z,992.22
2018-12-21T11:32:37.087Z,992.29
2018-12-21T11:33:33.946Z,992.24
2018-12-21T11:34:34.168Z,992.29
2018-12-21T11:35:32.175Z,992.27
2018-12-21T11:36:39.556Z,992.18
2018-12-21T11:37:37.332Z,992.26
2018-12-21T11:38:35.437Z,992.20
2018-12-21T11:39:36.212Z,992.17
2018-12-21T11:40:31.925Z,992.13
2018-12-21T11:42:33.851Z,992.05
2018-12-21T11:43:35.994Z,992.03
2018-12-21T11:45:31.761Z,992.10
2018-12-21T11:46:33.694Z,992.08
2018-12-21T11:47:36.156Z,992.02
2018-12-21T11:48:35.777Z,991.87
2018-12-21T11:49:35.690Z,992.03
2018-12-21T11:50:31.618Z,991.92
2018-12-21T11:51:36.195Z,991.92
2018-12-21T11:52:35.289Z,992.01
2018-12-21T11:53:35.616Z,991.96
2018-12-21T11:54:43.890Z,991.93
2018-12-21T11:55:35.243Z,991.99
2018-12-21T11:56:35.299Z,992.01
2018-12-21T11:57:36.001Z,991.93
2018-12-21T11:58:35.695Z,991.89
2018-12-21T11:59:35.154Z,991.91
2018-12-21T12:00:35.498Z,991.94
2018-12-21T12:01:36.126Z,991.91
2018-12-21T12:02:39.859Z,991.91
2018-12-21T12:03:33.303Z,991.92
2018-12-21T12:04:34.089Z,991.96
2018-12-21T12:05:42.461Z,991.86
2018-12-21T12:06:38.535Z,991.87
2018-12-21T12:07:36.594Z,991.82
2018-12-21T12:08:37.444Z,991.90
2018-12-21T12:10:32.932Z,991.80
2018-12-21T12:11:32.818Z,991.86
2018-12-21T12:12:35.306Z,991.79
2018-12-21T12:13:32.675Z,991.80
2018-12-21T12:14:34.791Z,991.76
2018-12-21T12:15:34.851Z,991.82
2018-12-21T12:16:35.599Z,991.68
2018-12-21T12:17:34.759Z,991.86
2018-12-21T12:18:34.908Z,991.75
2018-12-21T12:19:34.985Z,991.80
2018-12-21T12:20:32.786Z,991.80
2018-12-21T12:21:35.605Z,991.81
2018-12-21T12:22:35.050Z,991.75
2018-12-21T12:23:34.706Z,991.74
2018-12-21T12:24:34.247Z,991.78
2018-12-21T12:25:34.323Z,991.67
2018-12-21T12:26:34.611Z,991.80
2018-12-21T12:27:34.330Z,991.81
2018-12-21T12:28:35.626Z,991.76
2018-12-21T12:29:34.303Z,991.79
2018-12-21T12:30:34.317Z,991.81
2018-12-21T12:32:35.779Z,991.75
2018-12-21T12:33:34.843Z,991.80
2018-12-21T12:34:35.058Z,991.87
2018-12-21T12:35:39.625Z,991.71
2018-12-21T12:36:34.446Z,991.83
2018-12-21T12:37:32.808Z,991.70
2018-12-21T12:38:32.105Z,991.76
2018-12-21T12:39:34.746Z,991.85
2018-12-21T12:40:32.141Z,991.81
2018-12-21T12:41:30.050Z,991.89
2018-12-21T12:42:33.886Z,991.90
2018-12-21T12:43:33.860Z,991.96
2018-12-21T12:44:33.763Z,991.91
2018-12-21T12:45:33.740Z,992.10
2018-12-21T12:46:29.922Z,991.89
2018-12-21T12:47:33.704Z,991.90
2018-12-21T12:48:33.943Z,991.93
2018-12-21T12:49:34.045Z,991.86
2018-12-21T12:50:33.962Z,991.86
2018-12-21T12:51:32.585Z,991.89
2018-12-21T12:52:31.687Z,991.98
2018-12-21T12:53:34.538Z,991.91
2018-12-21T12:54:33.722Z,991.94
2018-12-21T12:55:32.516Z,991.95